Impacts METAR Board INFO
IDs:

KMSP - Minneapolis-St Paul, MN, US

Updated at: 1101 UTC 16 Dec 2017
Potential Impact None Slight Moderate High
Time15/23Z 16/00Z 16/01Z 16/02Z 16/03Z 16/04Z 16/05Z 16/06Z 16/07Z 16/08Z 16/09Z 16/10Z 16/11Z
VIS10 5 2 4 2 1.75 4 7 9 9 10 10 9
CIG13 48 28 49 37 24 70 65 60 55 180 300 180
CoverOVCOVCOVCOVCOVCOVCOVCOVCBKNOVCOVCOVCBKN
FltCatMVFRMVFRIFRMVFRIFRIFRMVFRVFRVFRVFRVFRVFRVFR
WX---SN BR-SN BR-SN BR-SN BR-SN BRBR------------
WDir1301301301201301201301101101101108070
WSpd5 5 6 6 6 4 7 9 6 8 7 6 7
WGst-- -- -- -- -- -- -- -- -- -- -- -- --
Raw hourly METARs
KMSP 152300Z 13005KT 10SM BKN013 OVC039 M03/M06 A2977 RMK AO2 T10281056
KMSP 152353Z 13005KT 5SM -SN BR FEW013 BKN048 OVC070 M03/M05 A2976 RMK AO2 SNB26 SLP089 4/002 P0000 60000 T10281050 11022 21039 58012
KMSP 160053Z 13006KT 2SM -SN BR OVC028 M03/M04 A2975 RMK AO2 SLP087 P0000 T10281044
KMSP 160153Z 12006KT 4SM -SN BR BKN049 OVC070 M03/M04 A2975 RMK AO2 SLP085 P0001 T10281039
KMSP 160253Z 13006KT 2SM -SN BR OVC037 M03/M03 A2973 RMK AO2 SLP078 P0002 60003 T10281033 56007
KMSP 160353Z 12004KT 1 3/4SM -SN BR OVC024 M02/M02 A2972 RMK AO2 SLP074 P0001 T10221022
KMSP 160453Z 13007KT 4SM BR OVC070 M02/M02 A2968 RMK AO2 SNE35 SLP061 P0001 T10171022
KMSP 160553Z 11009KT 7SM BKN065 OVC080 M01/M02 A2966 RMK AO2 SLP055 4/002 60005 T10111017 11011 21033 410111056 58022
KMSP 160653Z 11006KT 9SM BKN060 M01/M02 A2967 RMK AO2 SLP057 T10111017
KMSP 160753Z 11008KT 9SM OVC055 M01/M02 A2965 RMK AO2 SLP051 T10061017
KMSP 160853Z 11007KT 10SM OVC180 M01/M02 A2967 RMK AO2 SLP059 T10111017 53004
KMSP 160953Z 08006KT 10SM SCT180 OVC300 M02/M03 A2969 RMK AO2 SLP063 T10221028
KMSP 161053Z 07007KT 9SM SCT060 BKN180 BKN300 M03/M03 A2968 RMK AO2 SLP063 T10281033